createdAt,value
2022-09-27T00:02:10.604Z,17.35
2022-09-27T00:04:38.882Z,17.26
2022-09-27T00:07:07.447Z,17.20
2022-09-27T00:09:36.218Z,17.10
2022-09-27T00:12:04.594Z,17.12
2022-09-27T00:14:32.823Z,17.12
2022-09-27T00:17:01.068Z,17.11
2022-09-27T00:19:30.824Z,17.05
2022-09-27T00:21:59.014Z,17.05
2022-09-27T00:24:27.284Z,17.13
2022-09-27T00:26:55.505Z,17.11
2022-09-27T00:29:23.753Z,17.10
2022-09-27T00:31:51.968Z,17.06
2022-09-27T00:34:22.067Z,17.16
2022-09-27T00:36:52.143Z,17.10
2022-09-27T00:39:20.546Z,17.04
2022-09-27T00:41:48.718Z,17.00
2022-09-27T00:44:59.532Z,17.06
2022-09-27T00:47:34.137Z,17.04
2022-09-27T00:50:07.244Z,17.02
2022-09-27T00:52:44.471Z,17.05
2022-09-27T00:55:17.387Z,17.05
2022-09-27T00:57:47.379Z,17.09
2022-09-27T01:00:17.191Z,17.18
2022-09-27T01:02:49.500Z,17.20
2022-09-27T01:05:21.166Z,17.25
2022-09-27T01:07:50.733Z,17.33
2022-09-27T01:10:20.405Z,17.17
2022-09-27T01:13:00.686Z,17.16
2022-09-27T01:15:37.010Z,17.23
2022-09-27T01:18:31.198Z,17.20
2022-09-27T01:21:27.578Z,17.34
2022-09-27T01:24:37.631Z,17.35
2022-09-27T01:27:40.793Z,17.32
2022-09-27T01:30:22.583Z,17.35
2022-09-27T01:32:57.175Z,17.28
2022-09-27T01:35:32.234Z,17.16
2022-09-27T01:38:09.903Z,17.11
2022-09-27T01:40:44.758Z,17.04
2022-09-27T01:43:18.128Z,17.10
2022-09-27T01:45:54.654Z,17.07
2022-09-27T01:48:24.723Z,17.15
2022-09-27T01:50:58.530Z,17.23
2022-09-27T01:53:33.213Z,17.24
2022-09-27T01:56:06.254Z,17.29
2022-09-27T01:58:40.993Z,17.44
2022-09-27T02:01:12.547Z,17.54
2022-09-27T02:03:44.792Z,17.48
2022-09-27T02:06:17.526Z,17.49
2022-09-27T02:08:52.405Z,17.51
2022-09-27T02:11:20.814Z,17.61
2022-09-27T02:13:54.965Z,17.70
2022-09-27T02:16:34.541Z,17.78
2022-09-27T02:19:11.697Z,17.79
2022-09-27T02:21:45.978Z,17.83
2022-09-27T02:24:21.031Z,17.85
2022-09-27T02:26:55.803Z,17.87
2022-09-27T02:29:29.387Z,17.92
2022-09-27T02:31:59.028Z,17.93
2022-09-27T02:34:31.597Z,17.95
2022-09-27T02:37:01.094Z,18.03
2022-09-27T02:39:30.000Z,17.99
2022-09-27T02:42:00.190Z,17.88
2022-09-27T02:44:30.438Z,17.82
2022-09-27T02:47:14.597Z,17.88
2022-09-27T02:49:56.585Z,17.88
2022-09-27T02:52:34.401Z,17.91
2022-09-27T02:55:13.190Z,17.89
2022-09-27T02:57:54.675Z,17.87
2022-09-27T03:00:26.411Z,17.87
2022-09-27T03:03:04.267Z,17.83
2022-09-27T03:05:38.012Z,17.83
2022-09-27T03:08:07.541Z,17.74
2022-09-27T03:10:35.878Z,17.74
2022-09-27T03:13:05.059Z,17.75
2022-09-27T03:15:33.221Z,17.81
2022-09-27T03:18:02.846Z,17.73
2022-09-27T03:20:31.604Z,17.68
2022-09-27T03:22:59.871Z,17.78
2022-09-27T03:25:28.132Z,17.74
2022-09-27T03:27:56.381Z,17.73
2022-09-27T03:30:24.508Z,17.69
2022-09-27T03:32:52.768Z,17.69
2022-09-27T03:35:22.728Z,17.65
2022-09-27T03:37:50.910Z,17.65
2022-09-27T03:40:19.263Z,17.64
2022-09-27T03:42:50.020Z,17.57
2022-09-27T03:45:18.892Z,17.52
2022-09-27T03:47:47.199Z,17.46
2022-09-27T03:50:15.998Z,17.39
2022-09-27T03:52:45.801Z,17.19
2022-09-27T03:55:14.499Z,17.04
2022-09-27T03:57:46.577Z,16.86
2022-09-27T04:00:15.840Z,16.79
2022-09-27T04:02:44.509Z,16.74
2022-09-27T04:05:13.838Z,16.72
2022-09-27T04:07:42.045Z,16.71
2022-09-27T04:10:11.788Z,16.79
2022-09-27T04:12:41.827Z,16.77
2022-09-27T04:15:11.371Z,16.79
2022-09-27T04:17:42.015Z,16.82
2022-09-27T04:20:10.931Z,16.96
2022-09-27T04:22:41.472Z,17.00
2022-09-27T04:25:11.847Z,16.98
2022-09-27T04:27:40.069Z,16.99
2022-09-27T04:30:09.746Z,17.04
2022-09-27T04:32:42.660Z,17.07
2022-09-27T04:35:28.538Z,17.14
2022-09-27T04:37:57.647Z,17.21
2022-09-27T04:40:27.660Z,17.37
2022-09-27T04:42:58.034Z,17.44
2022-09-27T04:45:26.333Z,17.49
2022-09-27T04:47:54.513Z,17.44
2022-09-27T04:50:22.808Z,17.50
2022-09-27T04:52:53.018Z,17.61
2022-09-27T04:55:22.072Z,17.53
2022-09-27T04:57:51.907Z,17.59
2022-09-27T05:00:20.274Z,17.58
2022-09-27T05:02:48.882Z,17.55
2022-09-27T05:05:17.616Z,17.61
2022-09-27T05:07:45.734Z,17.63
2022-09-27T05:10:13.900Z,17.64
2022-09-27T05:12:42.366Z,17.75
2022-09-27T05:15:12.776Z,17.89
2022-09-27T05:17:40.878Z,17.88
2022-09-27T05:20:10.851Z,17.95
2022-09-27T05:22:40.763Z,18.05
2022-09-27T05:25:09.853Z,18.12
2022-09-27T05:27:38.170Z,18.24
2022-09-27T05:30:08.180Z,18.44
2022-09-27T05:32:41.811Z,18.53
2022-09-27T05:35:10.602Z,18.65
2022-09-27T05:37:40.263Z,18.72
2022-09-27T05:40:29.317Z,18.95
2022-09-27T05:42:58.135Z,19.03
2022-09-27T05:45:27.018Z,19.15
2022-09-27T05:47:58.374Z,19.22
2022-09-27T05:50:28.278Z,19.35
2022-09-27T05:52:56.410Z,19.43
2022-09-27T05:55:24.672Z,19.69
2022-09-27T05:57:57.629Z,19.57
2022-09-27T06:00:26.144Z,19.42
2022-09-27T06:03:00.087Z,19.30
2022-09-27T06:05:31.068Z,19.54
2022-09-27T06:08:03.737Z,19.54
2022-09-27T06:10:32.795Z,19.68
2022-09-27T06:13:02.517Z,19.82
2022-09-27T06:15:31.636Z,20.27
2022-09-27T06:18:05.652Z,20.64
2022-09-27T06:20:35.203Z,21.49
2022-09-27T06:23:07.837Z,21.95
2022-09-27T06:25:36.217Z,22.23
2022-09-27T06:28:05.009Z,22.77
2022-09-27T06:30:33.710Z,23.46
2022-09-27T06:33:04.215Z,23.26
2022-09-27T06:35:33.043Z,22.99
2022-09-27T06:38:05.524Z,22.75
2022-09-27T06:40:33.847Z,21.93
2022-09-27T06:43:06.243Z,21.88
2022-09-27T06:45:36.796Z,21.82
2022-09-27T06:48:08.147Z,21.98
2022-09-27T06:50:38.107Z,21.93
2022-09-27T06:53:08.430Z,21.87
2022-09-27T06:55:36.691Z,21.56
2022-09-27T06:58:23.103Z,21.82
2022-09-27T07:00:53.485Z,22.09
2022-09-27T07:03:28.426Z,22.17
2022-09-27T07:06:01.220Z,22.08
2022-09-27T07:08:30.191Z,21.75
2022-09-27T07:11:03.698Z,21.73
2022-09-27T07:13:34.748Z,21.89
2022-09-27T07:16:03.326Z,21.94
2022-09-27T07:18:33.076Z,21.76
2022-09-27T07:21:01.808Z,22.19
2022-09-27T07:23:31.235Z,22.37
2022-09-27T07:26:04.398Z,22.79
2022-09-27T07:28:32.580Z,23.11
2022-09-27T07:31:00.743Z,22.74
2022-09-27T07:33:28.928Z,22.83
2022-09-27T07:35:58.707Z,22.79
2022-09-27T07:38:26.888Z,22.64
2022-09-27T07:40:55.030Z,22.75
2022-09-27T07:43:23.771Z,22.70
2022-09-27T07:45:52.065Z,22.70
2022-09-27T07:48:20.272Z,22.75
2022-09-27T07:50:48.388Z,22.52
2022-09-27T07:53:18.477Z,22.67
2022-09-27T07:55:52.061Z,22.74
2022-09-27T07:58:20.767Z,22.91
2022-09-27T08:00:49.000Z,23.12
2022-09-27T08:03:18.683Z,23.09
2022-09-27T08:05:48.363Z,23.40
2022-09-27T08:08:19.004Z,23.63
2022-09-27T08:10:47.276Z,23.87
2022-09-27T08:13:20.401Z,23.85
2022-09-27T08:15:52.615Z,24.06
2022-09-27T08:18:22.147Z,24.11
2022-09-27T08:20:50.353Z,24.04
2022-09-27T08:23:20.022Z,23.88
2022-09-27T08:25:54.273Z,23.87
2022-09-27T08:28:22.831Z,24.17
2022-09-27T08:30:51.955Z,24.27
2022-09-27T08:33:20.361Z,24.48
2022-09-27T08:35:48.542Z,24.40
2022-09-27T08:38:16.642Z,24.26
2022-09-27T08:40:54.800Z,23.77
2022-09-27T08:43:33.265Z,23.77
2022-09-27T08:46:12.697Z,23.74
2022-09-27T08:48:41.403Z,23.84
2022-09-27T08:51:15.215Z,24.08
2022-09-27T08:53:49.602Z,23.98
2022-09-27T08:56:21.451Z,24.11
2022-09-27T08:58:54.089Z,24.17
2022-09-27T09:01:27.844Z,24.38
2022-09-27T09:03:59.420Z,24.38
2022-09-27T09:06:30.528Z,24.39
2022-09-27T09:09:12.102Z,24.50
2022-09-27T09:12:13.480Z,24.64
2022-09-27T09:15:16.083Z,24.84
2022-09-27T09:17:58.628Z,24.63
2022-09-27T09:20:42.900Z,24.53
2022-09-27T09:23:34.716Z,24.33
2022-09-27T09:26:09.627Z,24.47
2022-09-27T09:28:54.645Z,24.44
2022-09-27T09:31:32.041Z,24.34
2022-09-27T09:34:06.599Z,24.51
2022-09-27T09:36:40.012Z,24.36
2022-09-27T09:39:16.908Z,24.61
2022-09-27T09:41:55.380Z,24.72
2022-09-27T09:44:29.334Z,24.44
2022-09-27T09:47:00.797Z,24.42
2022-09-27T09:49:33.063Z,24.48
2022-09-27T09:52:09.134Z,24.47
2022-09-27T09:54:41.737Z,24.51
2022-09-27T09:57:15.459Z,24.56
2022-09-27T09:59:52.922Z,24.57
2022-09-27T10:02:29.544Z,24.50
2022-09-27T10:04:57.969Z,24.52
2022-09-27T10:07:27.457Z,24.32
2022-09-27T10:09:58.411Z,24.49
2022-09-27T10:12:26.904Z,24.81
2022-09-27T10:15:01.076Z,25.07
2022-09-27T10:17:37.125Z,24.91
2022-09-27T10:20:07.428Z,25.07
2022-09-27T10:22:39.151Z,25.03
2022-09-27T10:25:09.503Z,24.88
2022-09-27T10:27:42.182Z,24.52
2022-09-27T10:30:27.951Z,23.84
2022-09-27T10:33:00.420Z,23.67
2022-09-27T10:35:37.753Z,23.60
2022-09-27T10:38:22.750Z,23.33
2022-09-27T10:41:45.925Z,23.05
2022-09-27T10:44:25.399Z,23.03
2022-09-27T10:46:56.979Z,22.97
2022-09-27T10:49:29.254Z,22.56
2022-09-27T10:51:59.902Z,22.71
2022-09-27T10:54:30.200Z,22.78
2022-09-27T10:57:01.594Z,23.06
2022-09-27T10:59:32.513Z,23.01
2022-09-27T11:02:02.442Z,23.09
2022-09-27T11:04:33.642Z,23.10
2022-09-27T11:07:16.492Z,23.15
2022-09-27T11:09:52.873Z,23.12
2022-09-27T11:12:22.934Z,22.82
2022-09-27T11:14:56.766Z,22.61
2022-09-27T11:17:40.903Z,22.33
2022-09-27T11:20:24.147Z,22.32
2022-09-27T11:23:18.156Z,22.37
2022-09-27T11:26:00.278Z,22.49
2022-09-27T11:28:37.575Z,22.44
2022-09-27T11:31:19.442Z,22.47
2022-09-27T11:34:09.250Z,22.56
2022-09-27T11:36:54.689Z,22.50
2022-09-27T11:39:34.646Z,22.63
2022-09-27T11:42:23.829Z,22.51
2022-09-27T11:45:45.350Z,22.74
2022-09-27T11:48:19.649Z,22.68
2022-09-27T11:51:02.495Z,22.72
2022-09-27T11:54:00.372Z,22.41
2022-09-27T11:56:39.718Z,22.37
2022-09-27T11:59:39.500Z,22.20
2022-09-27T12:02:24.548Z,22.05
2022-09-27T12:05:03.036Z,22.27
2022-09-27T12:07:41.838Z,22.07
2022-09-27T12:10:14.667Z,22.16
2022-09-27T12:12:47.844Z,22.18
2022-09-27T12:15:18.587Z,22.19
2022-09-27T12:17:50.373Z,22.23
2022-09-27T12:20:22.749Z,22.37
2022-09-27T12:22:59.467Z,22.58
2022-09-27T12:25:32.983Z,22.78
2022-09-27T12:28:10.323Z,22.93
2022-09-27T12:30:42.999Z,22.81
2022-09-27T12:33:19.917Z,22.75
2022-09-27T12:35:53.709Z,22.67
2022-09-27T12:38:29.304Z,22.56
2022-09-27T12:41:00.872Z,22.60
2022-09-27T12:43:32.028Z,22.32
2022-09-27T12:46:13.231Z,22.58
2022-09-27T12:48:49.067Z,23.04
2022-09-27T12:51:19.946Z,23.08
2022-09-27T12:54:06.074Z,23.25
2022-09-27T12:56:48.776Z,23.30
2022-09-27T12:59:46.041Z,23.02
2022-09-27T13:03:16.458Z,22.70
2022-09-27T13:06:14.294Z,22.49
2022-09-27T13:09:17.532Z,22.28
2022-09-27T13:11:54.114Z,22.09
2022-09-27T13:14:26.586Z,22.20
2022-09-27T13:16:55.092Z,22.21
2022-09-27T13:19:43.145Z,22.10
2022-09-27T13:22:37.939Z,22.15
2022-09-27T13:25:55.522Z,21.95
2022-09-27T13:28:36.519Z,21.75
2022-09-27T13:31:06.777Z,21.43
2022-09-27T13:33:47.216Z,21.40
2022-09-27T13:36:33.728Z,21.52
2022-09-27T13:39:20.021Z,21.47
2022-09-27T13:42:18.217Z,21.14
2022-09-27T13:44:56.751Z,21.00
2022-09-27T13:47:33.451Z,20.74
2022-09-27T13:50:15.069Z,20.68
2022-09-27T13:52:46.436Z,20.80
2022-09-27T13:55:41.451Z,20.80
2022-09-27T13:58:34.248Z,20.80
2022-09-27T14:01:07.608Z,20.76
2022-09-27T14:03:40.673Z,20.75
2022-09-27T14:06:14.943Z,20.62
2022-09-27T14:08:47.352Z,20.63
2022-09-27T14:11:20.164Z,20.65
2022-09-27T14:13:50.675Z,20.59
2022-09-27T14:16:22.141Z,20.50
2022-09-27T14:18:53.340Z,20.55
2022-09-27T14:21:29.866Z,20.27
2022-09-27T14:24:21.318Z,20.21
2022-09-27T14:26:49.965Z,20.22
2022-09-27T14:29:21.995Z,20.26
2022-09-27T14:32:05.103Z,20.43
2022-09-27T14:34:33.333Z,20.69
2022-09-27T14:37:18.825Z,20.76
2022-09-27T14:39:48.032Z,20.84
2022-09-27T14:42:22.363Z,20.76
2022-09-27T14:44:52.993Z,20.63
2022-09-27T14:47:22.954Z,20.39
2022-09-27T14:49:52.696Z,20.09
2022-09-27T14:52:24.411Z,19.92
2022-09-27T14:55:00.919Z,19.81
2022-09-27T14:57:32.857Z,19.68
2022-09-27T15:00:05.010Z,19.61
2022-09-27T15:02:34.072Z,19.68
2022-09-27T15:05:02.366Z,19.65
2022-09-27T15:07:32.615Z,19.63
2022-09-27T15:10:00.828Z,19.61
2022-09-27T15:12:30.743Z,19.61
2022-09-27T15:14:59.611Z,19.58
2022-09-27T15:17:29.305Z,19.54
2022-09-27T15:20:00.177Z,19.63
2022-09-27T15:22:42.676Z,19.60
2022-09-27T15:25:23.641Z,19.56
2022-09-27T15:27:54.568Z,19.55
2022-09-27T15:30:29.857Z,19.54
2022-09-27T15:33:00.210Z,19.48
2022-09-27T15:35:33.390Z,19.46
2022-09-27T15:38:25.222Z,19.25
2022-09-27T15:41:04.162Z,19.23
2022-09-27T15:43:35.987Z,19.32
2022-09-27T15:46:06.163Z,19.27
2022-09-27T15:48:37.783Z,19.34
2022-09-27T15:51:42.353Z,19.37
2022-09-27T15:54:10.444Z,19.34
2022-09-27T15:56:38.953Z,19.41
2022-09-27T15:59:08.069Z,19.50
2022-09-27T16:01:36.202Z,19.47
2022-09-27T16:04:10.064Z,19.45
2022-09-27T16:06:39.486Z,19.42
2022-09-27T16:09:10.665Z,19.40
2022-09-27T16:11:38.818Z,19.42
2022-09-27T16:14:06.888Z,19.39
2022-09-27T16:16:35.647Z,19.43
2022-09-27T16:19:05.289Z,19.36
2022-09-27T16:21:33.419Z,19.32
2022-09-27T16:24:06.207Z,19.24
2022-09-27T16:26:35.465Z,19.21
2022-09-27T16:29:03.608Z,19.23
2022-09-27T16:31:31.937Z,19.16
2022-09-27T16:34:00.509Z,19.13
2022-09-27T16:36:30.190Z,19.22
2022-09-27T16:38:58.303Z,19.20
2022-09-27T16:41:26.523Z,19.23
2022-09-27T16:43:54.639Z,19.24
2022-09-27T16:46:23.350Z,19.23
2022-09-27T16:48:51.659Z,19.20
2022-09-27T16:51:39.864Z,19.17
2022-09-27T16:54:09.787Z,19.15
2022-09-27T16:56:38.309Z,19.14
2022-09-27T16:59:07.118Z,19.14
2022-09-27T17:01:35.656Z,19.12
2022-09-27T17:04:04.161Z,19.14
2022-09-27T17:06:33.202Z,19.18
2022-09-27T17:09:03.849Z,19.17
2022-09-27T17:11:34.735Z,19.17
2022-09-27T17:14:03.659Z,19.29
2022-09-27T17:16:31.903Z,19.35
2022-09-27T17:19:00.030Z,19.40
2022-09-27T17:21:28.139Z,19.47
2022-09-27T17:23:56.711Z,19.59
2022-09-27T17:26:26.961Z,19.61
2022-09-27T17:28:57.378Z,19.65
2022-09-27T17:31:26.510Z,19.76
2022-09-27T17:33:57.826Z,19.83
2022-09-27T17:36:28.238Z,19.85
2022-09-27T17:38:56.450Z,19.82
2022-09-27T17:41:26.148Z,19.75
2022-09-27T17:43:57.987Z,19.68
2022-09-27T17:46:27.995Z,19.61
2022-09-27T17:49:13.851Z,19.52
2022-09-27T17:51:42.971Z,19.40
2022-09-27T17:54:12.531Z,19.34
2022-09-27T17:56:42.516Z,19.34
2022-09-27T17:59:13.458Z,19.27
2022-09-27T18:01:41.630Z,19.23
2022-09-27T18:04:11.713Z,19.19
2022-09-27T18:06:41.993Z,19.18
2022-09-27T18:09:12.055Z,19.18
2022-09-27T18:11:41.137Z,19.36
2022-09-27T18:14:10.759Z,19.62
2022-09-27T18:16:44.002Z,19.88
2022-09-27T18:19:14.308Z,19.95
2022-09-27T18:21:42.441Z,20.14
2022-09-27T18:24:11.859Z,20.23
2022-09-27T18:26:40.762Z,20.36
2022-09-27T18:29:12.131Z,20.44
2022-09-27T18:31:47.377Z,20.56
2022-09-27T18:34:16.932Z,20.56
2022-09-27T18:36:45.569Z,20.63
2022-09-27T18:39:17.450Z,20.80
2022-09-27T18:41:46.662Z,20.84
2022-09-27T18:44:15.706Z,20.87
2022-09-27T18:46:45.316Z,20.83
2022-09-27T18:49:15.458Z,20.80
2022-09-27T18:51:47.101Z,20.85
2022-09-27T18:54:17.370Z,20.76
2022-09-27T18:56:45.662Z,20.73
2022-09-27T18:59:14.483Z,20.66
2022-09-27T19:01:46.374Z,20.59
2022-09-27T19:04:19.243Z,20.63
2022-09-27T19:06:49.771Z,20.80
2022-09-27T19:09:18.019Z,20.84
2022-09-27T19:11:46.457Z,20.87
2022-09-27T19:14:17.679Z,20.83
2022-09-27T19:16:48.296Z,20.83
2022-09-27T19:19:17.237Z,20.70
2022-09-27T19:21:45.905Z,20.60
2022-09-27T19:24:15.891Z,20.53
2022-09-27T19:26:44.370Z,20.52
2022-09-27T19:29:13.024Z,20.51
2022-09-27T19:31:42.569Z,20.05
2022-09-27T19:34:12.474Z,19.84
2022-09-27T19:36:40.652Z,19.61
2022-09-27T19:39:09.562Z,19.50
2022-09-27T19:41:37.951Z,19.33
2022-09-27T19:44:06.804Z,19.27
2022-09-27T19:46:35.027Z,18.93
2022-09-27T19:49:03.153Z,18.19
2022-09-27T19:51:33.455Z,17.70
2022-09-27T19:54:01.547Z,17.41
2022-09-27T19:56:29.655Z,17.16
2022-09-27T19:58:57.767Z,16.98
2022-09-27T20:01:27.001Z,17.09
2022-09-27T20:03:56.910Z,17.23
2022-09-27T20:06:25.013Z,17.13
2022-09-27T20:08:55.911Z,17.13
2022-09-27T20:11:26.353Z,17.09
2022-09-27T20:13:54.661Z,17.10
2022-09-27T20:16:24.543Z,16.97
2022-09-27T20:18:54.158Z,16.77
2022-09-27T20:21:25.279Z,16.64
2022-09-27T20:23:56.588Z,16.65
2022-09-27T20:26:26.671Z,16.63
2022-09-27T20:28:57.108Z,16.75
2022-09-27T20:31:27.368Z,16.70
2022-09-27T20:33:56.158Z,16.63
2022-09-27T20:36:25.784Z,16.63
2022-09-27T20:39:01.983Z,16.65
2022-09-27T20:41:32.629Z,16.72
2022-09-27T20:44:03.661Z,16.83
2022-09-27T20:46:32.092Z,16.82
2022-09-27T20:49:02.898Z,16.86
2022-09-27T20:51:33.390Z,16.92
2022-09-27T20:54:03.277Z,16.87
2022-09-27T20:56:33.321Z,16.87
2022-09-27T20:59:03.717Z,16.91
2022-09-27T21:01:32.418Z,16.88
2022-09-27T21:04:02.493Z,16.87
2022-09-27T21:06:31.633Z,16.94
2022-09-27T21:09:00.766Z,16.93
2022-09-27T21:11:30.470Z,17.03
2022-09-27T21:13:58.698Z,17.04
2022-09-27T21:16:28.537Z,16.99
2022-09-27T21:18:58.904Z,17.02
2022-09-27T21:21:27.646Z,16.88
2022-09-27T21:23:58.226Z,16.80
2022-09-27T21:26:28.187Z,16.64
2022-09-27T21:28:59.353Z,16.64
2022-09-27T21:31:29.983Z,16.88
2022-09-27T21:34:00.425Z,17.01
2022-09-27T21:36:30.972Z,17.03
2022-09-27T21:38:59.593Z,17.12
2022-09-27T21:41:28.906Z,17.04
2022-09-27T21:43:58.721Z,16.92
2022-09-27T21:46:29.337Z,16.90
2022-09-27T21:48:59.212Z,16.86
2022-09-27T21:51:29.337Z,16.80
2022-09-27T21:53:59.122Z,16.72
2022-09-27T21:56:28.503Z,16.46
2022-09-27T21:58:56.663Z,16.42
2022-09-27T22:01:29.565Z,16.52
2022-09-27T22:03:58.695Z,16.65
2022-09-27T22:06:28.974Z,16.72
2022-09-27T22:08:59.281Z,16.69
2022-09-27T22:11:30.443Z,16.50
2022-09-27T22:13:58.558Z,16.33
2022-09-27T22:16:30.346Z,16.26
2022-09-27T22:18:59.315Z,16.17
2022-09-27T22:21:29.584Z,16.20
2022-09-27T22:23:58.894Z,16.13
2022-09-27T22:26:29.462Z,15.88
2022-09-27T22:28:58.640Z,15.81
2022-09-27T22:31:29.055Z,15.80
2022-09-27T22:33:59.759Z,15.82
2022-09-27T22:36:29.056Z,15.77
2022-09-27T22:38:57.866Z,15.81
2022-09-27T22:41:26.646Z,15.75
2022-09-27T22:43:54.760Z,15.64
2022-09-27T22:46:23.403Z,15.77
2022-09-27T22:48:53.121Z,15.69
2022-09-27T22:51:21.230Z,15.59
2022-09-27T22:53:49.588Z,15.54
2022-09-27T22:56:19.810Z,15.52
2022-09-27T22:58:49.131Z,15.57
2022-09-27T23:01:20.327Z,15.64
2022-09-27T23:03:49.627Z,15.77
2022-09-27T23:06:20.894Z,15.95
2022-09-27T23:08:49.668Z,15.85
2022-09-27T23:11:19.347Z,15.82
2022-09-27T23:13:49.051Z,15.84
2022-09-27T23:16:20.367Z,15.89
2022-09-27T23:18:48.836Z,15.90
2022-09-27T23:21:18.665Z,16.02
2022-09-27T23:23:47.539Z,16.13
2022-09-27T23:26:17.440Z,16.17
2022-09-27T23:28:45.733Z,16.22
2022-09-27T23:31:15.549Z,16.15
2022-09-27T23:33:45.708Z,16.24
2022-09-27T23:36:15.324Z,16.30
2022-09-27T23:38:45.953Z,16.46
2022-09-27T23:41:14.252Z,16.62
2022-09-27T23:43:42.870Z,16.72
2022-09-27T23:46:11.660Z,16.80
2022-09-27T23:48:40.152Z,16.71
2022-09-27T23:51:10.524Z,16.50
2022-09-27T23:53:39.373Z,16.40
2022-09-27T23:56:11.957Z,16.25
2022-09-27T23:58:41.791Z,16.10
